Terminal Aerodrome Forecast
Issued by NWS Greer, SC

Home | Current Version | Previous Version | Text Only | Print | Product List | Glossary On
Versions: 1 2 3 4 5 6 7 8 9 10 11 12 13 14 15 16 17
000
FTUS42 KGSP 171700
TAFAVL
TAF
KAVL 171731Z 1718/1818 17008KT P6SM FEW250
     FM180100 14003KT P6SM FEW250
     FM180900 00000KT P6SM BKN040
     FM181500 31006KT P6SM BKN030
     FM181700 03005KT P6SM BKN040=

USA.gov is the U.S. government's official web portal to all federal, state and local government web resources and services.